sensor_id;sensor_type;location;lat;lon;timestamp;temperature;humidity
16038;DHT22;8123;50.906;6.172;2023-04-03T00:01:35;2.90;99.90
16038;DHT22;8123;50.906;6.172;2023-04-03T00:04:02;3.00;99.90
16038;DHT22;8123;50.906;6.172;2023-04-03T00:06:27;3.60;99.90
16038;DHT22;8123;50.906;6.172;2023-04-03T00:08:53;2.80;99.90
16038;DHT22;8123;50.906;6.172;2023-04-03T00:11:19;3.10;99.90
16038;DHT22;8123;50.906;6.172;2023-04-03T00:13:45;3.10;99.90
16038;DHT22;8123;50.906;6.172;2023-04-03T00:16:11;2.80;99.90
16038;DHT22;8123;50.906;6.172;2023-04-03T00:18:38;2.80;99.90
16038;DHT22;8123;50.906;6.172;2023-04-03T00:21:05;2.80;99.90
16038;DHT22;8123;50.906;6.172;2023-04-03T00:23:31;2.80;99.90
16038;DHT22;8123;50.906;6.172;2023-04-03T00:25:57;3.30;99.90
16038;DHT22;8123;50.906;6.172;2023-04-03T00:28:23;3.10;99.90
16038;DHT22;8123;50.906;6.172;2023-04-03T00:30:49;2.70;99.90
16038;DHT22;8123;50.906;6.172;2023-04-03T00:33:15;2.70;99.90
16038;DHT22;8123;50.906;6.172;2023-04-03T00:35:41;2.90;99.90
16038;DHT22;8123;50.906;6.172;2023-04-03T00:38:07;3.40;99.90
16038;DHT22;8123;50.906;6.172;2023-04-03T00:40:36;2.50;99.90
16038;DHT22;8123;50.906;6.172;2023-04-03T00:43:02;2.50;99.90
16038;DHT22;8123;50.906;6.172;2023-04-03T00:45:52;2.50;99.90
16038;DHT22;8123;50.906;6.172;2023-04-03T00:48:27;2.40;99.90
16038;DHT22;8123;50.906;6.172;2023-04-03T00:50:53;2.30;99.90
16038;DHT22;8123;50.906;6.172;2023-04-03T00:53:33;2.30;99.90
16038;DHT22;8123;50.906;6.172;2023-04-03T00:56:01;2.30;99.90
16038;DHT22;8123;50.906;6.172;2023-04-03T00:58:41;2.40;99.90
16038;DHT22;8123;50.906;6.172;2023-04-03T01:01:11;2.40;99.90
16038;DHT22;8123;50.906;6.172;2023-04-03T01:03:37;2.30;99.90
16038;DHT22;8123;50.906;6.172;2023-04-03T01:06:03;2.80;99.90
16038;DHT22;8123;50.906;6.172;2023-04-03T01:08:30;2.30;99.90
16038;DHT22;8123;50.906;6.172;2023-04-03T01:10:55;2.20;99.90
16038;DHT22;8123;50.906;6.172;2023-04-03T01:13:28;2.10;99.90
16038;DHT22;8123;50.906;6.172;2023-04-03T01:15:54;2.10;99.90
16038;DHT22;8123;50.906;6.172;2023-04-03T01:18:22;2.10;99.90
16038;DHT22;8123;50.906;6.172;2023-04-03T01:21:13;2.40;99.90
16038;DHT22;8123;50.906;6.172;2023-04-03T01:23:56;1.90;99.90
16038;DHT22;8123;50.906;6.172;2023-04-03T01:26:24;1.90;99.90
16038;DHT22;8123;50.906;6.172;2023-04-03T01:28:53;1.80;99.90
16038;DHT22;8123;50.906;6.172;2023-04-03T01:31:26;1.80;99.90
16038;DHT22;8123;50.906;6.172;2023-04-03T01:33:52;1.90;99.90
16038;DHT22;8123;50.906;6.172;2023-04-03T01:36:25;1.90;99.90
16038;DHT22;8123;50.906;6.172;2023-04-03T01:38:52;1.90;99.90
16038;DHT22;8123;50.906;6.172;2023-04-03T01:41:19;1.90;99.90
16038;DHT22;8123;50.906;6.172;2023-04-03T01:43:46;2.20;99.90
16038;DHT22;8123;50.906;6.172;2023-04-03T01:46:13;1.80;99.90
16038;DHT22;8123;50.906;6.172;2023-04-03T01:48:39;2.10;99.90
16038;DHT22;8123;50.906;6.172;2023-04-03T01:51:04;2.00;99.90
16038;DHT22;8123;50.906;6.172;2023-04-03T01:53:30;2.00;99.90
16038;DHT22;8123;50.906;6.172;2023-04-03T01:55:56;2.00;99.90
16038;DHT22;8123;50.906;6.172;2023-04-03T01:58:21;1.80;99.90
16038;DHT22;8123;50.906;6.172;2023-04-03T02:00:47;2.00;99.90
16038;DHT22;8123;50.906;6.172;2023-04-03T02:03:13;2.00;99.90
16038;DHT22;8123;50.906;6.172;2023-04-03T02:05:38;1.90;99.90
16038;DHT22;8123;50.906;6.172;2023-04-03T02:08:04;1.90;99.90
16038;DHT22;8123;50.906;6.172;2023-04-03T02:10:30;1.80;99.90
16038;DHT22;8123;50.906;6.172;2023-04-03T02:12:56;1.70;99.90
16038;DHT22;8123;50.906;6.172;2023-04-03T02:15:21;2.10;99.90
16038;DHT22;8123;50.906;6.172;2023-04-03T02:17:47;1.50;99.90
16038;DHT22;8123;50.906;6.172;2023-04-03T02:20:13;1.50;99.90
16038;DHT22;8123;50.906;6.172;2023-04-03T02:22:38;1.50;99.90
16038;DHT22;8123;50.906;6.172;2023-04-03T02:25:04;1.50;99.90
16038;DHT22;8123;50.906;6.172;2023-04-03T02:27:30;1.50;99.90
16038;DHT22;8123;50.906;6.172;2023-04-03T02:29:57;1.50;99.90
16038;DHT22;8123;50.906;6.172;2023-04-03T02:32:22;1.40;99.90
16038;DHT22;8123;50.906;6.172;2023-04-03T02:34:48;1.50;99.90
16038;DHT22;8123;50.906;6.172;2023-04-03T02:37:14;1.50;99.90
16038;DHT22;8123;50.906;6.172;2023-04-03T02:39:39;1.60;99.90
16038;DHT22;8123;50.906;6.172;2023-04-03T02:42:05;1.60;99.90
16038;DHT22;8123;50.906;6.172;2023-04-03T02:44:31;1.70;99.90
16038;DHT22;8123;50.906;6.172;2023-04-03T02:46:56;1.70;99.90
16038;DHT22;8123;50.906;6.172;2023-04-03T02:49:22;1.70;99.90
16038;DHT22;8123;50.906;6.172;2023-04-03T02:51:48;1.70;99.90
16038;DHT22;8123;50.906;6.172;2023-04-03T02:54:13;1.70;99.90
16038;DHT22;8123;50.906;6.172;2023-04-03T02:56:39;1.80;99.90
16038;DHT22;8123;50.906;6.172;2023-04-03T02:59:05;1.70;99.90
16038;DHT22;8123;50.906;6.172;2023-04-03T03:01:30;1.80;99.90
16038;DHT22;8123;50.906;6.172;2023-04-03T03:04:01;1.80;99.90
16038;DHT22;8123;50.906;6.172;2023-04-03T03:06:26;1.80;99.90
16038;DHT22;8123;50.906;6.172;2023-04-03T03:08:52;1.70;99.90
16038;DHT22;8123;50.906;6.172;2023-04-03T03:11:18;1.60;99.90
16038;DHT22;8123;50.906;6.172;2023-04-03T03:13:44;1.60;99.90
16038;DHT22;8123;50.906;6.172;2023-04-03T03:16:11;1.50;99.90
16038;DHT22;8123;50.906;6.172;2023-04-03T03:18:36;1.50;99.90
16038;DHT22;8123;50.906;6.172;2023-04-03T03:21:03;1.40;99.90
16038;DHT22;8123;50.906;6.172;2023-04-03T03:23:30;1.30;99.90
16038;DHT22;8123;50.906;6.172;2023-04-03T03:26:04;1.20;99.90
16038;DHT22;8123;50.906;6.172;2023-04-03T03:28:30;1.80;99.90
16038;DHT22;8123;50.906;6.172;2023-04-03T03:30:56;1.10;99.90
16038;DHT22;8123;50.906;6.172;2023-04-03T03:33:23;1.10;99.90
16038;DHT22;8123;50.906;6.172;2023-04-03T03:35:49;1.00;99.90
16038;DHT22;8123;50.906;6.172;2023-04-03T03:38:15;1.00;99.90
16038;DHT22;8123;50.906;6.172;2023-04-03T03:40:40;1.00;99.90
16038;DHT22;8123;50.906;6.172;2023-04-03T03:43:06;1.10;99.90
16038;DHT22;8123;50.906;6.172;2023-04-03T03:45:32;1.10;99.90
16038;DHT22;8123;50.906;6.172;2023-04-03T03:47:57;1.10;99.90
16038;DHT22;8123;50.906;6.172;2023-04-03T03:50:23;1.10;99.90
16038;DHT22;8123;50.906;6.172;2023-04-03T03:52:49;1.00;99.90
16038;DHT22;8123;50.906;6.172;2023-04-03T03:55:14;1.00;99.90
16038;DHT22;8123;50.906;6.172;2023-04-03T03:57:40;1.00;99.90
16038;DHT22;8123;50.906;6.172;2023-04-03T04:00:06;1.00;99.90
16038;DHT22;8123;50.906;6.172;2023-04-03T04:02:32;1.00;99.90
16038;DHT22;8123;50.906;6.172;2023-04-03T04:04:58;1.00;99.90
16038;DHT22;8123;50.906;6.172;2023-04-03T04:07:24;1.00;99.90
16038;DHT22;8123;50.906;6.172;2023-04-03T04:09:49;1.10;99.90
16038;DHT22;8123;50.906;6.172;2023-04-03T04:12:15;1.10;99.90
16038;DHT22;8123;50.906;6.172;2023-04-03T04:14:41;1.00;99.90
16038;DHT22;8123;50.906;6.172;2023-04-03T04:17:07;1.10;99.90
16038;DHT22;8123;50.906;6.172;2023-04-03T04:19:32;1.30;99.90
16038;DHT22;8123;50.906;6.172;2023-04-03T04:21:58;0.90;99.90
16038;DHT22;8123;50.906;6.172;2023-04-03T04:24:24;0.90;99.90
16038;DHT22;8123;50.906;6.172;2023-04-03T04:26:50;0.80;99.90
16038;DHT22;8123;50.906;6.172;2023-04-03T04:29:16;0.90;99.90
16038;DHT22;8123;50.906;6.172;2023-04-03T04:31:41;0.90;99.90
16038;DHT22;8123;50.906;6.172;2023-04-03T04:34:07;0.90;99.90
16038;DHT22;8123;50.906;6.172;2023-04-03T04:36:33;0.90;99.90
16038;DHT22;8123;50.906;6.172;2023-04-03T04:38:58;0.90;99.90
16038;DHT22;8123;50.906;6.172;2023-04-03T04:41:24;1.00;99.90
16038;DHT22;8123;50.906;6.172;2023-04-03T04:43:50;1.00;99.90
16038;DHT22;8123;50.906;6.172;2023-04-03T04:46:16;1.10;99.90
16038;DHT22;8123;50.906;6.172;2023-04-03T04:48:42;1.10;99.90
16038;DHT22;8123;50.906;6.172;2023-04-03T04:51:08;1.20;99.90
16038;DHT22;8123;50.906;6.172;2023-04-03T04:53:34;1.20;99.90
16038;DHT22;8123;50.906;6.172;2023-04-03T04:56:00;1.30;99.90
16038;DHT22;8123;50.906;6.172;2023-04-03T04:58:25;1.30;99.90
16038;DHT22;8123;50.906;6.172;2023-04-03T05:01:02;1.30;99.90
16038;DHT22;8123;50.906;6.172;2023-04-03T05:03:29;1.30;99.90
16038;DHT22;8123;50.906;6.172;2023-04-03T05:05:54;1.30;99.90
16038;DHT22;8123;50.906;6.172;2023-04-03T05:08:20;1.20;99.90
16038;DHT22;8123;50.906;6.172;2023-04-03T05:10:46;1.20;99.90
16038;DHT22;8123;50.906;6.172;2023-04-03T05:13:13;1.20;99.90
16038;DHT22;8123;50.906;6.172;2023-04-03T05:15:38;1.20;99.90
16038;DHT22;8123;50.906;6.172;2023-04-03T05:18:04;1.20;99.90
16038;DHT22;8123;50.906;6.172;2023-04-03T05:20:31;1.20;99.90
16038;DHT22;8123;50.906;6.172;2023-04-03T05:22:56;1.50;99.90
16038;DHT22;8123;50.906;6.172;2023-04-03T05:25:22;1.30;99.90
16038;DHT22;8123;50.906;6.172;2023-04-03T05:27:48;1.70;99.90
16038;DHT22;8123;50.906;6.172;2023-04-03T05:30:14;1.40;99.90
16038;DHT22;8123;50.906;6.172;2023-04-03T05:32:44;1.40;99.90
16038;DHT22;8123;50.906;6.172;2023-04-03T05:35:09;1.40;99.90
16038;DHT22;8123;50.906;6.172;2023-04-03T05:37:36;1.40;99.90
16038;DHT22;8123;50.906;6.172;2023-04-03T05:40:03;1.50;99.90
16038;DHT22;8123;50.906;6.172;2023-04-03T05:42:28;1.50;99.90
16038;DHT22;8123;50.906;6.172;2023-04-03T05:44:55;1.50;99.90
16038;DHT22;8123;50.906;6.172;2023-04-03T05:47:20;1.50;99.90
16038;DHT22;8123;50.906;6.172;2023-04-03T05:49:46;1.90;99.90
16038;DHT22;8123;50.906;6.172;2023-04-03T05:52:35;1.60;99.90
16038;DHT22;8123;50.906;6.172;2023-04-03T05:55:01;1.70;99.90
16038;DHT22;8123;50.906;6.172;2023-04-03T05:57:27;1.70;99.90
16038;DHT22;8123;50.906;6.172;2023-04-03T05:59:53;1.70;99.90
16038;DHT22;8123;50.906;6.172;2023-04-03T06:02:20;1.70;99.90
16038;DHT22;8123;50.906;6.172;2023-04-03T06:04:46;1.80;99.90
16038;DHT22;8123;50.906;6.172;2023-04-03T06:07:21;1.70;99.90
16038;DHT22;8123;50.906;6.172;2023-04-03T06:09:51;1.80;99.90
16038;DHT22;8123;50.906;6.172;2023-04-03T06:12:17;2.20;99.90
16038;DHT22;8123;50.906;6.172;2023-04-03T06:14:43;1.90;99.90
16038;DHT22;8123;50.906;6.172;2023-04-03T06:17:09;1.90;99.90
16038;DHT22;8123;50.906;6.172;2023-04-03T06:19:35;1.90;99.90
16038;DHT22;8123;50.906;6.172;2023-04-03T06:22:01;1.90;99.90
16038;DHT22;8123;50.906;6.172;2023-04-03T06:24:27;2.00;99.90
16038;DHT22;8123;50.906;6.172;2023-04-03T06:26:53;2.00;99.90
16038;DHT22;8123;50.906;6.172;2023-04-03T06:29:19;2.80;99.90
16038;DHT22;8123;50.906;6.172;2023-04-03T06:31:46;2.10;99.90
16038;DHT22;8123;50.906;6.172;2023-04-03T06:34:12;2.20;99.90
16038;DHT22;8123;50.906;6.172;2023-04-03T06:36:39;2.50;99.90
16038;DHT22;8123;50.906;6.172;2023-04-03T06:39:05;2.20;99.90
16038;DHT22;8123;50.906;6.172;2023-04-03T06:41:32;2.20;99.90
16038;DHT22;8123;50.906;6.172;2023-04-03T06:43:58;2.30;99.90
16038;DHT22;8123;50.906;6.172;2023-04-03T06:46:26;2.90;99.90
16038;DHT22;8123;50.906;6.172;2023-04-03T06:48:52;2.50;99.90
16038;DHT22;8123;50.906;6.172;2023-04-03T06:51:26;2.50;99.90
16038;DHT22;8123;50.906;6.172;2023-04-03T06:53:53;2.60;99.90
16038;DHT22;8123;50.906;6.172;2023-04-03T06:56:20;2.60;99.90
16038;DHT22;8123;50.906;6.172;2023-04-03T06:58:46;3.70;99.90
16038;DHT22;8123;50.906;6.172;2023-04-03T07:01:14;3.30;99.90
16038;DHT22;8123;50.906;6.172;2023-04-03T07:03:40;3.10;99.90
16038;DHT22;8123;50.906;6.172;2023-04-03T07:06:07;2.80;99.90
16038;DHT22;8123;50.906;6.172;2023-04-03T07:08:34;2.80;99.90
16038;DHT22;8123;50.906;6.172;2023-04-03T07:11:01;3.20;99.90
16038;DHT22;8123;50.906;6.172;2023-04-03T07:13:27;3.10;99.90
16038;DHT22;8123;50.906;6.172;2023-04-03T07:15:52;3.30;99.90
16038;DHT22;8123;50.906;6.172;2023-04-03T07:18:19;3.00;99.90
16038;DHT22;8123;50.906;6.172;2023-04-03T07:20:45;3.10;99.90
16038;DHT22;8123;50.906;6.172;2023-04-03T07:23:11;3.30;99.90
16038;DHT22;8123;50.906;6.172;2023-04-03T07:25:37;3.90;99.90
16038;DHT22;8123;50.906;6.172;2023-04-03T07:28:07;3.80;99.90
16038;DHT22;8123;50.906;6.172;2023-04-03T07:30:34;3.30;99.90
16038;DHT22;8123;50.906;6.172;2023-04-03T07:33:00;3.70;99.90
16038;DHT22;8123;50.906;6.172;2023-04-03T07:35:26;3.40;99.90
16038;DHT22;8123;50.906;6.172;2023-04-03T07:37:51;3.50;99.90
16038;DHT22;8123;50.906;6.172;2023-04-03T07:40:17;3.90;99.90
16038;DHT22;8123;50.906;6.172;2023-04-03T07:42:43;3.60;99.90
16038;DHT22;8123;50.906;6.172;2023-04-03T07:45:09;4.30;99.90
16038;DHT22;8123;50.906;6.172;2023-04-03T07:47:34;3.60;99.90
16038;DHT22;8123;50.906;6.172;2023-04-03T07:50:00;3.80;99.90
16038;DHT22;8123;50.906;6.172;2023-04-03T07:52:26;4.10;99.90
16038;DHT22;8123;50.906;6.172;2023-04-03T07:54:51;4.20;99.90
16038;DHT22;8123;50.906;6.172;2023-04-03T07:57:17;4.50;99.90
16038;DHT22;8123;50.906;6.172;2023-04-03T07:59:43;4.10;99.90
16038;DHT22;8123;50.906;6.172;2023-04-03T08:02:12;3.90;99.90
16038;DHT22;8123;50.906;6.172;2023-04-03T08:04:38;4.50;99.90
16038;DHT22;8123;50.906;6.172;2023-04-03T08:07:03;4.50;99.90
16038;DHT22;8123;50.906;6.172;2023-04-03T08:09:30;4.40;99.90
16038;DHT22;8123;50.906;6.172;2023-04-03T08:11:57;4.10;99.90
16038;DHT22;8123;50.906;6.172;2023-04-03T08:14:23;4.50;99.90
16038;DHT22;8123;50.906;6.172;2023-04-03T08:16:49;4.50;99.90
16038;DHT22;8123;50.906;6.172;2023-04-03T08:19:15;4.70;99.90
16038;DHT22;8123;50.906;6.172;2023-04-03T08:21:42;5.30;99.90
16038;DHT22;8123;50.906;6.172;2023-04-03T08:24:08;4.90;99.90
16038;DHT22;8123;50.906;6.172;2023-04-03T08:26:34;5.00;99.90
16038;DHT22;8123;50.906;6.172;2023-04-03T08:29:00;5.00;99.90
16038;DHT22;8123;50.906;6.172;2023-04-03T08:31:27;4.60;99.90
16038;DHT22;8123;50.906;6.172;2023-04-03T08:33:53;4.60;99.90
16038;DHT22;8123;50.906;6.172;2023-04-03T08:36:24;4.60;99.90
16038;DHT22;8123;50.906;6.172;2023-04-03T08:38:51;4.70;99.90
16038;DHT22;8123;50.906;6.172;2023-04-03T08:41:50;5.70;99.90
16038;DHT22;8123;50.906;6.172;2023-04-03T08:49:41;5.00;99.90
16038;DHT22;8123;50.906;6.172;2023-04-03T08:54:56;5.20;99.90
16038;DHT22;8123;50.906;6.172;2023-04-03T08:57:34;5.40;99.90
16038;DHT22;8123;50.906;6.172;2023-04-03T09:00:05;5.20;99.90
16038;DHT22;8123;50.906;6.172;2023-04-03T09:02:45;5.30;99.90
16038;DHT22;8123;50.906;6.172;2023-04-03T09:05:20;5.20;99.90
16038;DHT22;8123;50.906;6.172;2023-04-03T09:10:35;5.10;99.90
16038;DHT22;8123;50.906;6.172;2023-04-03T09:16:20;5.30;99.90
16038;DHT22;8123;50.906;6.172;2023-04-03T09:18:52;5.20;99.90
16038;DHT22;8123;50.906;6.172;2023-04-03T09:21:37;5.30;99.90
16038;DHT22;8123;50.906;6.172;2023-04-03T09:24:05;5.30;99.90
16038;DHT22;8123;50.906;6.172;2023-04-03T09:26:51;5.40;99.90
16038;DHT22;8123;50.906;6.172;2023-04-03T09:29:21;5.40;99.90
16038;DHT22;8123;50.906;6.172;2023-04-03T09:31:59;5.50;99.90
16038;DHT22;8123;50.906;6.172;2023-04-03T09:34:35;5.50;99.90
16038;DHT22;8123;50.906;6.172;2023-04-03T09:37:03;5.50;99.90
16038;DHT22;8123;50.906;6.172;2023-04-03T09:39:33;5.50;99.90
16038;DHT22;8123;50.906;6.172;2023-04-03T09:42:22;5.70;99.90
16038;DHT22;8123;50.906;6.172;2023-04-03T09:45:21;5.70;99.90
16038;DHT22;8123;50.906;6.172;2023-04-03T09:47:48;5.80;99.90
16038;DHT22;8123;50.906;6.172;2023-04-03T09:52:45;5.80;99.90
16038;DHT22;8123;50.906;6.172;2023-04-03T09:55:25;6.00;99.90
16038;DHT22;8123;50.906;6.172;2023-04-03T09:58:04;5.40;99.90
16038;DHT22;8123;50.906;6.172;2023-04-03T10:00:54;5.70;99.90
16038;DHT22;8123;50.906;6.172;2023-04-03T10:03:28;5.90;99.90
16038;DHT22;8123;50.906;6.172;2023-04-03T10:05:54;6.20;99.90
16038;DHT22;8123;50.906;6.172;2023-04-03T10:11:15;5.90;99.90
16038;DHT22;8123;50.906;6.172;2023-04-03T10:16:21;6.10;99.90
16038;DHT22;8123;50.906;6.172;2023-04-03T10:21:45;6.10;99.90
16038;DHT22;8123;50.906;6.172;2023-04-03T10:24:26;6.20;99.90
16038;DHT22;8123;50.906;6.172;2023-04-03T10:27:01;6.30;99.90
16038;DHT22;8123;50.906;6.172;2023-04-03T10:32:26;6.30;98.90
16038;DHT22;8123;50.906;6.172;2023-04-03T10:35:27;6.30;95.70
16038;DHT22;8123;50.906;6.172;2023-04-03T10:38:01;6.40;93.70
16038;DHT22;8123;50.906;6.172;2023-04-03T10:40:55;6.50;93.70
16038;DHT22;8123;50.906;6.172;2023-04-03T10:54:08;6.70;94.20
16038;DHT22;8123;50.906;6.172;2023-04-03T10:56:40;6.70;93.60
16038;DHT22;8123;50.906;6.172;2023-04-03T10:59:25;7.00;93.60
16038;DHT22;8123;50.906;6.172;2023-04-03T11:01:56;6.70;91.70
16038;DHT22;8123;50.906;6.172;2023-04-03T11:04:27;6.70;91.00
16038;DHT22;8123;50.906;6.172;2023-04-03T11:07:02;6.80;90.90
16038;DHT22;8123;50.906;6.172;2023-04-03T11:09:34;7.30;93.80
16038;DHT22;8123;50.906;6.172;2023-04-03T11:12:17;6.90;90.90
16038;DHT22;8123;50.906;6.172;2023-04-03T11:14:46;7.00;91.70
16038;DHT22;8123;50.906;6.172;2023-04-03T11:22:35;7.10;91.60
16038;DHT22;8123;50.906;6.172;2023-04-03T11:27:44;7.30;88.50
16038;DHT22;8123;50.906;6.172;2023-04-03T11:36:18;7.30;89.20
16038;DHT22;8123;50.906;6.172;2023-04-03T11:38:46;7.50;90.30
16038;DHT22;8123;50.906;6.172;2023-04-03T11:41:13;7.30;89.90
16038;DHT22;8123;50.906;6.172;2023-04-03T11:43:43;7.20;89.00
16038;DHT22;8123;50.906;6.172;2023-04-03T11:46:21;7.30;88.90
16038;DHT22;8123;50.906;6.172;2023-04-03T11:48:49;7.30;88.60
16038;DHT22;8123;50.906;6.172;2023-04-03T11:53:46;7.40;83.50
16038;DHT22;8123;50.906;6.172;2023-04-03T12:01:57;7.50;88.60
16038;DHT22;8123;50.906;6.172;2023-04-03T12:04:25;7.60;88.20
16038;DHT22;8123;50.906;6.172;2023-04-03T12:06:58;7.60;85.00
16038;DHT22;8123;50.906;6.172;2023-04-03T12:12:31;7.60;84.40
16038;DHT22;8123;50.906;6.172;2023-04-03T12:15:21;7.80;81.30
16038;DHT22;8123;50.906;6.172;2023-04-03T12:17:48;8.00;78.90
16038;DHT22;8123;50.906;6.172;2023-04-03T12:20:51;7.90;77.30
16038;DHT22;8123;50.906;6.172;2023-04-03T12:23:33;7.80;74.00
16038;DHT22;8123;50.906;6.172;2023-04-03T12:26:04;7.80;73.80
16038;DHT22;8123;50.906;6.172;2023-04-03T12:28:36;7.90;75.00
16038;DHT22;8123;50.906;6.172;2023-04-03T12:31:04;8.00;72.40
16038;DHT22;8123;50.906;6.172;2023-04-03T12:39:23;8.10;71.40
16038;DHT22;8123;50.906;6.172;2023-04-03T12:42:16;8.20;69.20
16038;DHT22;8123;50.906;6.172;2023-04-03T12:47:32;8.20;68.90
16038;DHT22;8123;50.906;6.172;2023-04-03T12:50:02;8.30;73.30
16038;DHT22;8123;50.906;6.172;2023-04-03T12:52:37;8.20;73.80
16038;DHT22;8123;50.906;6.172;2023-04-03T12:55:14;8.20;75.30
16038;DHT22;8123;50.906;6.172;2023-04-03T12:57:40;8.20;71.80
16038;DHT22;8123;50.906;6.172;2023-04-03T13:02:53;8.30;70.40
16038;DHT22;8123;50.906;6.172;2023-04-03T13:10:24;8.30;67.10
16038;DHT22;8123;50.906;6.172;2023-04-03T13:12:58;8.40;67.10
16038;DHT22;8123;50.906;6.172;2023-04-03T13:15:42;8.40;68.00
16038;DHT22;8123;50.906;6.172;2023-04-03T13:18:26;8.40;68.10
16038;DHT22;8123;50.906;6.172;2023-04-03T13:20:56;8.80;68.80
16038;DHT22;8123;50.906;6.172;2023-04-03T13:23:22;8.40;68.90
16038;DHT22;8123;50.906;6.172;2023-04-03T13:25:49;8.40;68.90
16038;DHT22;8123;50.906;6.172;2023-04-03T13:28:20;8.50;68.70
16038;DHT22;8123;50.906;6.172;2023-04-03T13:36:41;8.60;61.10
16038;DHT22;8123;50.906;6.172;2023-04-03T13:42:02;8.60;62.50
16038;DHT22;8123;50.906;6.172;2023-04-03T13:44:39;8.60;56.90
16038;DHT22;8123;50.906;6.172;2023-04-03T13:49:39;8.70;58.50
16038;DHT22;8123;50.906;6.172;2023-04-03T13:52:33;8.70;55.40
16038;DHT22;8123;50.906;6.172;2023-04-03T13:55:23;8.70;57.10
16038;DHT22;8123;50.906;6.172;2023-04-03T14:05:53;8.50;53.60
16038;DHT22;8123;50.906;6.172;2023-04-03T14:08:19;8.70;53.50
16038;DHT22;8123;50.906;6.172;2023-04-03T14:10:45;8.70;51.90
16038;DHT22;8123;50.906;6.172;2023-04-03T14:13:17;8.80;51.70
16038;DHT22;8123;50.906;6.172;2023-04-03T14:15:44;8.70;50.60
16038;DHT22;8123;50.906;6.172;2023-04-03T14:18:12;8.60;52.10
16038;DHT22;8123;50.906;6.172;2023-04-03T14:20:38;8.80;51.50
16038;DHT22;8123;50.906;6.172;2023-04-03T14:23:04;8.70;49.40
16038;DHT22;8123;50.906;6.172;2023-04-03T14:25:29;8.70;50.90
16038;DHT22;8123;50.906;6.172;2023-04-03T14:27:55;8.90;49.90
16038;DHT22;8123;50.906;6.172;2023-04-03T14:30:27;9.00;47.00
16038;DHT22;8123;50.906;6.172;2023-04-03T14:32:54;8.80;48.10
16038;DHT22;8123;50.906;6.172;2023-04-03T14:35:20;9.00;45.40
16038;DHT22;8123;50.906;6.172;2023-04-03T14:37:47;9.00;48.50
16038;DHT22;8123;50.906;6.172;2023-04-03T14:40:17;8.90;46.50
16038;DHT22;8123;50.906;6.172;2023-04-03T14:42:42;8.90;43.50
16038;DHT22;8123;50.906;6.172;2023-04-03T14:45:11;9.20;44.80
16038;DHT22;8123;50.906;6.172;2023-04-03T14:47:45;8.90;46.80
16038;DHT22;8123;50.906;6.172;2023-04-03T14:50:26;8.90;46.20
16038;DHT22;8123;50.906;6.172;2023-04-03T14:52:55;8.90;48.80
16038;DHT22;8123;50.906;6.172;2023-04-03T14:55:23;9.00;46.50
16038;DHT22;8123;50.906;6.172;2023-04-03T14:57:49;9.00;44.80
16038;DHT22;8123;50.906;6.172;2023-04-03T15:00:20;9.00;46.30
16038;DHT22;8123;50.906;6.172;2023-04-03T15:02:47;8.90;46.50
16038;DHT22;8123;50.906;6.172;2023-04-03T15:05:13;9.00;46.10
16038;DHT22;8123;50.906;6.172;2023-04-03T15:07:42;9.00;47.30
16038;DHT22;8123;50.906;6.172;2023-04-03T15:12:41;9.00;47.50
16038;DHT22;8123;50.906;6.172;2023-04-03T15:15:08;8.90;47.50
16038;DHT22;8123;50.906;6.172;2023-04-03T15:17:34;8.90;46.90
16038;DHT22;8123;50.906;6.172;2023-04-03T15:20:02;8.80;47.50
16038;DHT22;8123;50.906;6.172;2023-04-03T15:22:28;8.80;47.80
16038;DHT22;8123;50.906;6.172;2023-04-03T15:24:54;9.50;47.60
16038;DHT22;8123;50.906;6.172;2023-04-03T15:27:20;8.90;47.50
16038;DHT22;8123;50.906;6.172;2023-04-03T15:29:46;8.90;48.80
16038;DHT22;8123;50.906;6.172;2023-04-03T15:32:12;8.80;49.10
16038;DHT22;8123;50.906;6.172;2023-04-03T15:34:38;8.90;48.20
16038;DHT22;8123;50.906;6.172;2023-04-03T15:37:05;9.00;47.70
16038;DHT22;8123;50.906;6.172;2023-04-03T15:39:31;9.00;48.20
16038;DHT22;8123;50.906;6.172;2023-04-03T15:41:57;8.90;48.30
16038;DHT22;8123;50.906;6.172;2023-04-03T15:44:25;8.90;47.80
16038;DHT22;8123;50.906;6.172;2023-04-03T15:46:51;8.90;47.70
16038;DHT22;8123;50.906;6.172;2023-04-03T15:49:18;8.90;49.00
16038;DHT22;8123;50.906;6.172;2023-04-03T15:51:44;8.90;48.40
16038;DHT22;8123;50.906;6.172;2023-04-03T15:54:10;8.90;51.50
16038;DHT22;8123;50.906;6.172;2023-04-03T15:56:36;9.00;48.50
16038;DHT22;8123;50.906;6.172;2023-04-03T15:59:02;9.00;48.70
16038;DHT22;8123;50.906;6.172;2023-04-03T16:01:27;9.10;50.10
16038;DHT22;8123;50.906;6.172;2023-04-03T16:03:53;9.20;51.00
16038;DHT22;8123;50.906;6.172;2023-04-03T16:06:20;9.30;49.50
16038;DHT22;8123;50.906;6.172;2023-04-03T16:08:47;9.60;49.10
16038;DHT22;8123;50.906;6.172;2023-04-03T16:11:13;10.10;48.20
16038;DHT22;8123;50.906;6.172;2023-04-03T16:13:39;10.40;47.20
16038;DHT22;8123;50.906;6.172;2023-04-03T16:16:05;10.50;48.50
16038;DHT22;8123;50.906;6.172;2023-04-03T16:18:31;10.50;47.80
16038;DHT22;8123;50.906;6.172;2023-04-03T16:20:57;10.50;50.00
16038;DHT22;8123;50.906;6.172;2023-04-03T16:23:23;10.60;48.90
16038;DHT22;8123;50.906;6.172;2023-04-03T16:25:49;10.50;47.70
16038;DHT22;8123;50.906;6.172;2023-04-03T16:28:16;10.50;47.90
16038;DHT22;8123;50.906;6.172;2023-04-03T16:30:43;10.50;49.60
16038;DHT22;8123;50.906;6.172;2023-04-03T16:33:09;10.60;49.30
16038;DHT22;8123;50.906;6.172;2023-04-03T16:35:35;10.60;49.00
16038;DHT22;8123;50.906;6.172;2023-04-03T16:38:01;10.60;50.30
16038;DHT22;8123;50.906;6.172;2023-04-03T16:40:27;10.50;50.30
16038;DHT22;8123;50.906;6.172;2023-04-03T16:42:52;10.30;50.20
16038;DHT22;8123;50.906;6.172;2023-04-03T16:45:18;10.20;49.10
16038;DHT22;8123;50.906;6.172;2023-04-03T16:47:44;10.00;48.60
16038;DHT22;8123;50.906;6.172;2023-04-03T16:50:10;9.70;49.70
16038;DHT22;8123;50.906;6.172;2023-04-03T16:52:36;9.60;50.80
16038;DHT22;8123;50.906;6.172;2023-04-03T16:55:02;9.40;52.60
16038;DHT22;8123;50.906;6.172;2023-04-03T16:57:27;9.20;53.30
16038;DHT22;8123;50.906;6.172;2023-04-03T16:59:54;9.00;54.50
16038;DHT22;8123;50.906;6.172;2023-04-03T17:02:21;8.90;55.80
16038;DHT22;8123;50.906;6.172;2023-04-03T17:04:47;8.80;55.60
16038;DHT22;8123;50.906;6.172;2023-04-03T17:07:12;8.70;55.50
16038;DHT22;8123;50.906;6.172;2023-04-03T17:09:38;8.60;57.10
16038;DHT22;8123;50.906;6.172;2023-04-03T17:12:04;8.50;57.30
16038;DHT22;8123;50.906;6.172;2023-04-03T17:14:29;8.40;58.70
16038;DHT22;8123;50.906;6.172;2023-04-03T17:16:55;8.30;58.20
16038;DHT22;8123;50.906;6.172;2023-04-03T17:19:21;8.30;58.90
16038;DHT22;8123;50.906;6.172;2023-04-03T17:21:48;8.20;60.00
16038;DHT22;8123;50.906;6.172;2023-04-03T17:24:14;8.10;59.30
16038;DHT22;8123;50.906;6.172;2023-04-03T17:26:42;8.10;59.60
16038;DHT22;8123;50.906;6.172;2023-04-03T17:29:08;8.20;62.70
16038;DHT22;8123;50.906;6.172;2023-04-03T17:31:34;8.00;64.40
16038;DHT22;8123;50.906;6.172;2023-04-03T17:33:59;8.00;65.10
16038;DHT22;8123;50.906;6.172;2023-04-03T17:36:29;8.10;67.00
16038;DHT22;8123;50.906;6.172;2023-04-03T17:38:55;8.00;64.40
16038;DHT22;8123;50.906;6.172;2023-04-03T17:41:21;7.90;66.70
16038;DHT22;8123;50.906;6.172;2023-04-03T17:43:47;7.70;65.40
16038;DHT22;8123;50.906;6.172;2023-04-03T17:46:12;7.70;67.50
16038;DHT22;8123;50.906;6.172;2023-04-03T17:48:39;7.60;70.00
16038;DHT22;8123;50.906;6.172;2023-04-03T17:51:11;7.50;72.20
16038;DHT22;8123;50.906;6.172;2023-04-03T17:53:38;7.40;75.80